createdAt,value
2022-11-16T00:01:54.185Z,14.27
2022-11-16T00:04:23.849Z,13.48
2022-11-16T00:06:51.755Z,15.65
2022-11-16T00:09:27.096Z,15.50
2022-11-16T00:11:56.553Z,11.80
2022-11-16T00:14:25.920Z,15.00
2022-11-16T00:16:53.780Z,15.18
2022-11-16T00:19:23.147Z,16.52
2022-11-16T00:21:51.023Z,15.25
2022-11-16T00:24:20.785Z,15.18
2022-11-16T00:26:49.949Z,16.98
2022-11-16T00:29:20.436Z,15.90
2022-11-16T00:31:49.519Z,13.68
2022-11-16T00:34:18.288Z,12.93
2022-11-16T00:36:47.932Z,15.77
2022-11-16T00:39:17.020Z,17.15
2022-11-16T00:41:45.805Z,16.48
2022-11-16T00:44:13.855Z,14.77
2022-11-16T00:46:42.205Z,15.40
2022-11-16T00:49:10.463Z,18.90
2022-11-16T00:51:38.644Z,16.88
2022-11-16T00:54:09.437Z,18.58
2022-11-16T00:56:37.908Z,17.63
2022-11-16T00:59:05.978Z,17.27
2022-11-16T01:01:33.982Z,19.67
2022-11-16T01:04:01.907Z,16.88
2022-11-16T01:06:29.773Z,18.85
2022-11-16T01:08:57.609Z,19.95
2022-11-16T01:11:44.245Z,20.15
2022-11-16T01:14:12.658Z,18.20
2022-11-16T01:16:40.495Z,18.98
2022-11-16T01:19:09.060Z,19.23
2022-11-16T01:21:36.929Z,19.55
2022-11-16T01:24:05.026Z,18.92
2022-11-16T01:26:34.198Z,22.33
2022-11-16T01:29:02.029Z,19.08
2022-11-16T01:31:29.945Z,19.80
2022-11-16T01:33:57.741Z,18.10
2022-11-16T01:36:25.542Z,17.77
2022-11-16T01:38:53.618Z,17.45
2022-11-16T01:41:23.718Z,16.35
2022-11-16T01:43:56.925Z,16.35
2022-11-16T01:46:25.764Z,15.35
2022-11-16T01:49:00.702Z,15.25
2022-11-16T01:51:28.973Z,16.02
2022-11-16T01:53:57.560Z,15.77
2022-11-16T01:56:26.633Z,14.65
2022-11-16T01:58:55.836Z,15.20
2022-11-16T02:01:23.914Z,15.27
2022-11-16T02:03:51.779Z,14.23
2022-11-16T02:06:39.075Z,16.92
2022-11-16T02:09:49.703Z,14.65
2022-11-16T02:12:42.764Z,14.75
2022-11-16T02:15:20.677Z,15.40
2022-11-16T02:17:59.521Z,14.35
2022-11-16T02:20:50.129Z,16.10
2022-11-16T02:24:05.781Z,16.48
2022-11-16T02:26:48.001Z,15.43
2022-11-16T02:29:27.430Z,15.95
2022-11-16T02:32:03.237Z,15.30
2022-11-16T02:34:37.290Z,15.98
2022-11-16T02:37:08.146Z,16.42
2022-11-16T02:39:39.913Z,17.77
2022-11-16T02:42:13.555Z,14.95
2022-11-16T02:44:48.178Z,17.67
2022-11-16T02:47:21.110Z,17.33
2022-11-16T02:49:53.921Z,18.45
2022-11-16T02:52:23.939Z,20.08
2022-11-16T02:54:51.756Z,17.00
2022-11-16T02:57:43.688Z,17.33
2022-11-16T03:00:19.912Z,16.38
2022-11-16T03:03:11.131Z,17.73
2022-11-16T03:05:42.170Z,21.33
2022-11-16T03:08:17.663Z,18.70
2022-11-16T03:11:07.635Z,20.63
2022-11-16T03:13:38.246Z,19.45
2022-11-16T03:16:13.503Z,21.67
2022-11-16T03:18:42.658Z,20.55
2022-11-16T03:21:17.280Z,20.30
2022-11-16T03:23:46.794Z,21.40
2022-11-16T03:26:19.395Z,21.13
2022-11-16T03:28:53.272Z,22.52
2022-11-16T03:31:28.533Z,22.00
2022-11-16T03:33:59.267Z,22.42
2022-11-16T03:36:30.135Z,21.83
2022-11-16T03:39:01.523Z,21.17
2022-11-16T03:41:30.832Z,23.47
2022-11-16T03:44:00.168Z,23.65
2022-11-16T03:46:30.121Z,22.92
2022-11-16T03:48:59.519Z,22.80
2022-11-16T03:51:27.562Z,24.10
2022-11-16T03:53:55.854Z,21.13
2022-11-16T03:56:23.844Z,22.58
2022-11-16T03:58:51.722Z,21.35
2022-11-16T04:01:19.620Z,22.67
2022-11-16T04:03:48.932Z,23.10
2022-11-16T04:06:42.632Z,32.75
2022-11-16T04:09:25.244Z,25.17
2022-11-16T04:12:10.588Z,22.98
2022-11-16T04:14:56.016Z,22.77
2022-11-16T04:17:43.773Z,23.20
2022-11-16T04:20:33.008Z,23.20
2022-11-16T04:23:21.207Z,23.08
2022-11-16T04:25:51.360Z,26.98
2022-11-16T04:28:21.021Z,24.85
2022-11-16T04:31:11.356Z,24.23
2022-11-16T04:33:57.289Z,23.33
2022-11-16T04:36:44.204Z,22.92
2022-11-16T04:39:12.179Z,22.05
2022-11-16T04:41:57.499Z,20.83
2022-11-16T04:44:45.516Z,21.33
2022-11-16T04:47:12.366Z,25.15
2022-11-16T04:49:40.252Z,25.30
2022-11-16T04:52:09.884Z,19.55
2022-11-16T04:54:37.720Z,24.60
2022-11-16T04:57:05.645Z,20.33
2022-11-16T04:59:33.459Z,21.40
2022-11-16T05:02:10.237Z,23.30
2022-11-16T05:04:39.121Z,23.95
2022-11-16T05:07:11.028Z,23.73
2022-11-16T05:09:41.446Z,23.98
2022-11-16T05:12:09.846Z,29.30
2022-11-16T05:14:37.843Z,24.67
2022-11-16T05:17:05.699Z,25.55
2022-11-16T05:19:51.112Z,26.30
2022-11-16T05:22:20.258Z,25.55
2022-11-16T05:24:48.109Z,28.15
2022-11-16T05:27:18.105Z,24.90
2022-11-16T05:29:46.901Z,23.80
2022-11-16T05:32:14.808Z,23.15
2022-11-16T05:34:42.852Z,29.27
2022-11-16T05:37:10.741Z,26.48
2022-11-16T05:39:39.948Z,26.73
2022-11-16T05:42:08.650Z,26.90
2022-11-16T05:44:36.764Z,28.65
2022-11-16T05:47:04.599Z,31.17
2022-11-16T05:49:32.543Z,32.65
2022-11-16T05:52:00.359Z,29.73
2022-11-16T05:54:28.172Z,28.17
2022-11-16T05:56:57.399Z,36.63
2022-11-16T05:59:25.395Z,38.05
2022-11-16T06:01:53.243Z,34.05
2022-11-16T06:04:24.499Z,31.38
2022-11-16T06:06:52.827Z,32.30
2022-11-16T06:09:20.694Z,29.05
2022-11-16T06:11:48.529Z,25.13
2022-11-16T06:14:17.709Z,27.65
2022-11-16T06:16:45.551Z,26.55
2022-11-16T06:19:13.372Z,25.70
2022-11-16T06:21:41.226Z,26.52
2022-11-16T06:24:09.528Z,30.63
2022-11-16T06:26:37.678Z,26.70
2022-11-16T06:29:05.551Z,30.08
2022-11-16T06:31:34.733Z,27.85
2022-11-16T06:34:02.586Z,26.38
2022-11-16T06:36:30.757Z,27.48
2022-11-16T06:39:00.837Z,28.30
2022-11-16T06:41:28.692Z,27.50
2022-11-16T06:43:56.515Z,25.88
2022-11-16T06:46:25.343Z,29.27
2022-11-16T06:48:54.541Z,27.83
2022-11-16T06:51:22.375Z,25.80
2022-11-16T06:53:50.211Z,24.10
2022-11-16T06:56:18.060Z,25.58
2022-11-16T06:58:45.897Z,26.42
2022-11-16T07:01:13.801Z,28.02
2022-11-16T07:03:41.691Z,26.45
2022-11-16T07:06:12.624Z,24.08
2022-11-16T07:08:41.288Z,27.63
2022-11-16T07:11:10.402Z,26.13
2022-11-16T07:13:39.517Z,26.55
2022-11-16T07:16:09.197Z,26.83
2022-11-16T07:18:38.612Z,23.50
2022-11-16T07:21:07.441Z,24.05
2022-11-16T07:23:37.015Z,26.85
2022-11-16T07:26:06.773Z,27.50
2022-11-16T07:28:34.922Z,25.50
2022-11-16T07:31:04.825Z,25.08
2022-11-16T07:33:32.750Z,25.92
2022-11-16T07:36:02.971Z,26.80
2022-11-16T07:38:32.165Z,28.13
2022-11-16T07:41:06.215Z,27.88
2022-11-16T07:43:35.567Z,27.40
2022-11-16T07:48:52.542Z,26.73
2022-11-16T07:51:20.763Z,25.83
2022-11-16T07:53:48.716Z,28.05
2022-11-16T07:56:17.902Z,26.15
2022-11-16T07:58:45.792Z,28.05
2022-11-16T08:01:15.649Z,28.35
2022-11-16T08:03:45.471Z,28.95
2022-11-16T08:06:15.009Z,26.15
2022-11-16T08:08:42.852Z,29.63
2022-11-16T08:11:12.444Z,29.35
2022-11-16T08:13:42.747Z,26.15
2022-11-16T08:16:13.843Z,25.73
2022-11-16T08:18:42.732Z,30.40
2022-11-16T08:21:12.507Z,28.73
2022-11-16T08:23:40.842Z,24.42
2022-11-16T08:26:10.918Z,27.80
2022-11-16T08:28:39.881Z,28.58
2022-11-16T08:31:11.512Z,28.67
2022-11-16T08:33:39.414Z,25.58
2022-11-16T08:36:13.837Z,27.10
2022-11-16T08:38:42.173Z,27.30
2022-11-16T08:41:10.008Z,26.20
2022-11-16T08:43:39.475Z,27.90
2022-11-16T08:46:09.198Z,23.17
2022-11-16T08:48:38.076Z,23.60
2022-11-16T08:51:22.242Z,25.13
2022-11-16T08:53:51.072Z,27.77
2022-11-16T08:56:19.967Z,22.15
2022-11-16T08:58:51.305Z,20.25
2022-11-16T09:01:22.735Z,23.48
2022-11-16T09:03:51.311Z,21.53
2022-11-16T09:06:19.240Z,22.17
2022-11-16T09:08:47.864Z,20.88
2022-11-16T09:11:17.719Z,18.08
2022-11-16T09:13:46.798Z,21.88
2022-11-16T09:16:16.537Z,19.27
2022-11-16T09:18:47.118Z,18.15
2022-11-16T09:21:19.665Z,17.08
2022-11-16T09:23:48.095Z,21.80
2022-11-16T09:26:16.586Z,19.15
2022-11-16T09:28:44.451Z,17.33
2022-11-16T09:31:12.292Z,15.70
2022-11-16T09:33:40.128Z,16.15
2022-11-16T09:36:10.648Z,18.35
2022-11-16T09:39:13.991Z,18.50
2022-11-16T09:41:52.183Z,16.00
2022-11-16T09:44:37.761Z,19.17
2022-11-16T09:47:09.951Z,15.27
2022-11-16T09:49:43.543Z,15.88
2022-11-16T09:52:19.789Z,15.43
2022-11-16T09:54:48.362Z,15.35
2022-11-16T09:57:21.462Z,18.40
2022-11-16T09:59:52.799Z,16.70
2022-11-16T10:02:26.251Z,18.83
2022-11-16T10:04:58.908Z,15.77
2022-11-16T10:07:34.068Z,19.35
2022-11-16T10:10:02.120Z,15.50
2022-11-16T10:12:34.970Z,13.40
2022-11-16T10:15:18.567Z,16.08
2022-11-16T10:18:02.964Z,17.30
2022-11-16T10:20:51.876Z,13.63
2022-11-16T10:23:33.898Z,16.33
2022-11-16T10:26:12.840Z,11.85
2022-11-16T10:29:06.357Z,12.88
2022-11-16T10:31:51.438Z,17.25
2022-11-16T10:34:22.920Z,17.60
2022-11-16T10:36:50.849Z,13.63
2022-11-16T10:39:24.076Z,14.90
2022-11-16T10:41:52.408Z,13.23
2022-11-16T10:44:26.805Z,11.93
2022-11-16T10:47:02.259Z,12.90
2022-11-16T10:49:37.620Z,11.10
2022-11-16T10:52:05.947Z,12.82
2022-11-16T10:54:37.833Z,12.93
2022-11-16T10:57:13.882Z,13.77
2022-11-16T10:59:43.671Z,13.98
2022-11-16T11:02:34.929Z,11.00
2022-11-16T11:05:16.523Z,14.00
2022-11-16T11:07:47.706Z,13.13
2022-11-16T11:10:31.103Z,13.52
2022-11-16T11:13:08.056Z,12.23
2022-11-16T11:15:35.942Z,11.52
2022-11-16T11:18:19.012Z,10.93
2022-11-16T11:20:49.451Z,12.70
2022-11-16T11:23:19.852Z,12.52
2022-11-16T11:25:54.621Z,10.68
2022-11-16T11:28:26.182Z,13.48
2022-11-16T11:30:58.289Z,14.05
2022-11-16T11:33:28.824Z,14.48
2022-11-16T11:36:01.068Z,14.05
2022-11-16T11:41:01.070Z,11.52
2022-11-16T11:46:04.973Z,12.32
2022-11-16T11:48:40.535Z,16.25
2022-11-16T11:51:14.919Z,11.43
2022-11-16T11:53:51.377Z,12.90
2022-11-16T11:56:21.275Z,14.30
2022-11-16T11:58:50.197Z,11.45
2022-11-16T12:01:36.703Z,18.35
2022-11-16T12:04:35.398Z,13.82
2022-11-16T12:07:13.113Z,12.52
2022-11-16T12:09:47.852Z,13.77
2022-11-16T12:12:35.943Z,12.57
2022-11-16T12:15:26.587Z,16.45
2022-11-16T12:18:06.997Z,13.88
2022-11-16T12:20:45.852Z,15.02
2022-11-16T12:23:35.570Z,11.70
2022-11-16T12:26:12.203Z,14.80
2022-11-16T12:28:56.919Z,12.18
2022-11-16T12:31:46.297Z,12.57
2022-11-16T12:34:24.094Z,13.20
2022-11-16T12:37:00.604Z,16.52
2022-11-16T12:39:35.327Z,16.83
2022-11-16T12:42:24.389Z,14.55
2022-11-16T12:45:32.779Z,16.30
2022-11-16T12:48:19.821Z,16.05
2022-11-16T12:50:57.570Z,12.30
2022-11-16T12:53:57.170Z,11.80
2022-11-16T12:56:33.361Z,11.02
2022-11-16T12:59:22.982Z,11.63
2022-11-16T13:02:01.364Z,12.13
2022-11-16T13:04:33.482Z,11.55
2022-11-16T13:07:10.663Z,14.07
2022-11-16T13:09:42.912Z,12.88
2022-11-16T13:12:17.104Z,14.38
2022-11-16T13:14:47.845Z,17.15
2022-11-16T13:17:21.745Z,11.93
2022-11-16T13:20:11.737Z,15.73
2022-11-16T13:22:50.811Z,17.13
2022-11-16T13:25:25.498Z,15.75
2022-11-16T13:27:58.396Z,15.38
2022-11-16T13:30:33.901Z,13.05
2022-11-16T13:33:23.401Z,14.73
2022-11-16T13:35:52.276Z,13.18
2022-11-16T13:38:53.320Z,14.98
2022-11-16T13:41:28.305Z,13.80
2022-11-16T13:43:56.601Z,14.10
2022-11-16T13:46:54.085Z,14.02
2022-11-16T13:49:24.385Z,11.70
2022-11-16T13:51:55.480Z,11.70
2022-11-16T13:54:45.014Z,13.15
2022-11-16T13:57:24.141Z,11.10
2022-11-16T14:00:08.355Z,11.48
2022-11-16T14:02:37.991Z,21.98
2022-11-16T14:05:15.869Z,19.15
2022-11-16T14:07:47.021Z,9.95
2022-11-16T14:11:01.928Z,13.57
2022-11-16T14:13:48.326Z,9.32
2022-11-16T14:16:48.949Z,6.95
2022-11-16T14:19:54.949Z,3.40
2022-11-16T14:23:00.103Z,5.07
2022-11-16T14:25:33.364Z,5.10
2022-11-16T14:28:12.574Z,5.68
2022-11-16T14:30:53.431Z,5.80
2022-11-16T14:33:30.266Z,3.33
2022-11-16T14:35:58.477Z,6.18
2022-11-16T14:38:33.101Z,3.60
2022-11-16T14:41:03.555Z,3.08
2022-11-16T14:43:36.778Z,3.22
2022-11-16T14:46:09.269Z,4.93
2022-11-16T14:51:15.869Z,9.90
2022-11-16T14:53:49.732Z,12.32
2022-11-16T14:56:19.472Z,8.38
2022-11-16T14:58:55.067Z,4.68
2022-11-16T15:01:27.134Z,5.63
2022-11-16T15:03:58.749Z,6.28
2022-11-16T15:06:27.774Z,3.88
2022-11-16T15:09:00.521Z,2.78
2022-11-16T15:11:50.589Z,5.20
2022-11-16T15:14:20.912Z,4.93
2022-11-16T15:16:53.422Z,7.65
2022-11-16T15:19:22.295Z,4.18
2022-11-16T15:21:54.733Z,6.63
2022-11-16T15:24:32.671Z,6.72
2022-11-16T15:27:12.049Z,7.93
2022-11-16T15:29:40.251Z,6.35
2022-11-16T15:32:14.005Z,9.27
2022-11-16T15:34:41.906Z,7.65
2022-11-16T15:37:12.265Z,7.70
2022-11-16T15:39:41.880Z,8.98
2022-11-16T15:42:15.399Z,6.63
2022-11-16T15:44:44.476Z,7.38
2022-11-16T15:47:14.013Z,6.65
2022-11-16T15:49:44.071Z,9.30
2022-11-16T15:52:11.966Z,7.50
2022-11-16T15:55:06.927Z,6.45
2022-11-16T15:57:34.805Z,10.20
2022-11-16T16:00:02.884Z,8.32
2022-11-16T16:02:32.555Z,6.80
2022-11-16T16:05:00.466Z,7.68
2022-11-16T16:07:38.315Z,9.02
2022-11-16T16:10:24.741Z,9.20
2022-11-16T16:12:54.166Z,12.65
2022-11-16T16:15:23.924Z,9.02
2022-11-16T16:17:52.751Z,10.20
2022-11-16T16:20:23.451Z,9.02
2022-11-16T16:22:51.438Z,9.23
2022-11-16T16:25:32.034Z,11.50
2022-11-16T16:28:00.101Z,11.27
2022-11-16T16:30:29.836Z,10.32
2022-11-16T16:32:58.071Z,9.50
2022-11-16T16:35:27.331Z,14.48
2022-11-16T16:37:59.793Z,15.20
2022-11-16T16:40:28.024Z,14.52
2022-11-16T16:42:58.438Z,11.60
2022-11-16T16:45:37.045Z,14.63
2022-11-16T16:48:05.184Z,13.88
2022-11-16T16:50:33.188Z,18.50
2022-11-16T16:53:01.024Z,14.52
2022-11-16T16:55:31.663Z,12.45
2022-11-16T16:58:03.472Z,12.80
2022-11-16T17:00:31.382Z,15.05
2022-11-16T17:02:59.370Z,12.88
2022-11-16T17:05:27.250Z,16.98
2022-11-16T17:07:56.088Z,19.83
2022-11-16T17:10:24.672Z,23.40
2022-11-16T17:12:54.713Z,24.83
2022-11-16T17:15:24.184Z,22.70
2022-11-16T17:17:52.220Z,21.95
2022-11-16T17:20:20.034Z,17.40
2022-11-16T17:22:47.900Z,14.23
2022-11-16T17:25:15.820Z,17.05
2022-11-16T17:27:43.643Z,14.27
2022-11-16T17:30:12.799Z,14.13
2022-11-16T17:32:42.002Z,20.00
2022-11-16T17:35:10.485Z,22.58
2022-11-16T17:37:38.393Z,20.20
2022-11-16T17:40:07.055Z,15.93
2022-11-16T17:42:35.575Z,14.55
2022-11-16T17:45:03.712Z,15.57
2022-11-16T17:47:32.794Z,14.63
2022-11-16T17:50:03.181Z,14.43
2022-11-16T17:52:31.055Z,12.25
2022-11-16T17:54:58.886Z,12.95
2022-11-16T17:57:26.724Z,12.10
2022-11-16T17:59:54.552Z,14.07
2022-11-16T18:02:22.404Z,14.32
2022-11-16T18:04:51.508Z,14.48
2022-11-16T18:07:20.866Z,15.13
2022-11-16T18:09:48.747Z,14.18
2022-11-16T18:12:16.601Z,15.27
2022-11-16T18:14:54.916Z,13.02
2022-11-16T18:17:34.685Z,14.27
2022-11-16T18:20:02.772Z,13.88
2022-11-16T18:22:32.148Z,14.20
2022-11-16T18:24:59.942Z,14.27
2022-11-16T18:27:27.790Z,18.00
2022-11-16T18:29:55.625Z,15.98
2022-11-16T18:32:23.468Z,13.98
2022-11-16T18:34:51.281Z,13.50
2022-11-16T18:37:19.099Z,15.43
2022-11-16T18:39:48.257Z,16.00
2022-11-16T18:42:16.112Z,11.25
2022-11-16T18:44:43.927Z,12.52
2022-11-16T18:47:11.727Z,12.13
2022-11-16T18:49:39.540Z,12.63
2022-11-16T18:52:07.393Z,10.65
2022-11-16T18:54:35.199Z,11.82
2022-11-16T18:57:04.448Z,9.10
2022-11-16T18:59:32.271Z,9.40
2022-11-16T19:02:00.527Z,7.25
2022-11-16T19:04:28.727Z,7.15
2022-11-16T19:06:56.682Z,11.30
2022-11-16T19:09:24.561Z,15.60
2022-11-16T19:11:52.363Z,17.70
2022-11-16T19:14:21.544Z,17.15
2022-11-16T19:16:55.670Z,14.55
2022-11-16T19:19:27.572Z,11.90
2022-11-16T19:21:56.903Z,15.85
2022-11-16T19:24:24.786Z,17.70
2022-11-16T19:26:53.356Z,14.98
2022-11-16T19:29:22.510Z,11.38
2022-11-16T19:31:50.345Z,11.80
2022-11-16T19:34:18.127Z,12.82
2022-11-16T19:36:46.013Z,11.45
2022-11-16T19:39:13.828Z,14.65
2022-11-16T19:41:41.681Z,11.45
2022-11-16T19:44:09.517Z,11.32
2022-11-16T19:46:38.722Z,10.65
2022-11-16T19:49:08.564Z,10.02
2022-11-16T19:51:36.712Z,6.90
2022-11-16T19:54:04.912Z,8.00
2022-11-16T19:56:32.802Z,9.25
2022-11-16T19:59:00.736Z,10.65
2022-11-16T20:01:29.761Z,10.73
2022-11-16T20:04:00.490Z,11.85
2022-11-16T20:06:29.948Z,9.77
2022-11-16T20:09:00.534Z,12.25
2022-11-16T20:11:29.882Z,9.85
2022-11-16T20:13:58.553Z,9.45
2022-11-16T20:16:28.125Z,9.75
2022-11-16T20:18:56.329Z,8.85
2022-11-16T20:21:28.759Z,10.05
2022-11-16T20:24:04.686Z,7.80
2022-11-16T20:26:35.292Z,11.02
2022-11-16T20:29:03.215Z,8.63
2022-11-16T20:31:32.689Z,8.48
2022-11-16T20:34:01.668Z,8.73
2022-11-16T20:36:32.633Z,12.00
2022-11-16T20:39:01.510Z,9.55
2022-11-16T20:41:31.126Z,8.40
2022-11-16T20:44:00.696Z,9.00
2022-11-16T20:46:29.875Z,11.68
2022-11-16T20:49:00.703Z,7.60
2022-11-16T20:51:30.735Z,8.98
2022-11-16T20:53:59.202Z,10.18
2022-11-16T20:56:27.096Z,7.50
2022-11-16T20:58:54.946Z,8.82
2022-11-16T21:01:28.319Z,9.23
2022-11-16T21:03:56.523Z,8.07
2022-11-16T21:06:24.672Z,8.50
2022-11-16T21:08:54.172Z,9.05
2022-11-16T21:11:24.883Z,11.75
2022-11-16T21:14:10.648Z,7.60
2022-11-16T21:16:38.721Z,6.68
2022-11-16T21:19:07.248Z,7.15
2022-11-16T21:21:35.374Z,13.07
2022-11-16T21:24:04.819Z,7.57
2022-11-16T21:26:34.233Z,8.55
2022-11-16T21:29:02.920Z,5.25
2022-11-16T21:31:32.131Z,6.65
2022-11-16T21:34:01.456Z,5.88
2022-11-16T21:36:30.771Z,7.95
2022-11-16T21:38:59.337Z,6.50
2022-11-16T21:41:28.832Z,6.28
2022-11-16T21:43:57.094Z,8.82
2022-11-16T21:46:26.455Z,6.90
2022-11-16T21:48:56.342Z,9.10
2022-11-16T21:51:26.675Z,8.27
2022-11-16T21:53:55.050Z,7.32
2022-11-16T21:56:24.322Z,6.63
2022-11-16T21:58:54.232Z,7.22
2022-11-16T22:01:23.374Z,6.00
2022-11-16T22:04:05.568Z,7.15
2022-11-16T22:06:50.823Z,5.60
2022-11-16T22:09:18.703Z,7.43
2022-11-16T22:11:46.512Z,5.82
2022-11-16T22:14:15.715Z,7.75
2022-11-16T22:16:43.523Z,6.70
2022-11-16T22:19:11.366Z,4.68
2022-11-16T22:21:39.169Z,5.60
2022-11-16T22:24:07.828Z,5.68
2022-11-16T22:26:35.662Z,6.53
2022-11-16T22:29:03.456Z,6.88
2022-11-16T22:31:32.970Z,6.85
2022-11-16T22:34:00.808Z,5.53
2022-11-16T22:36:28.671Z,6.68
2022-11-16T22:38:57.075Z,6.18
2022-11-16T22:41:24.896Z,6.18
2022-11-16T22:43:52.801Z,6.72
2022-11-16T22:46:20.598Z,6.10
2022-11-16T22:48:49.761Z,7.20
2022-11-16T22:51:20.722Z,5.05
2022-11-16T22:53:48.901Z,5.88
2022-11-16T22:56:16.717Z,5.88
2022-11-16T22:58:44.570Z,4.70
2022-11-16T23:01:12.385Z,3.90
2022-11-16T23:03:40.544Z,4.28
2022-11-16T23:06:10.185Z,4.28
2022-11-16T23:08:39.951Z,4.35
2022-11-16T23:11:27.613Z,6.43
2022-11-16T23:14:13.523Z,3.42
2022-11-16T23:16:42.407Z,4.03
2022-11-16T23:19:26.948Z,3.00
2022-11-16T23:22:14.464Z,3.08
2022-11-16T23:25:00.176Z,4.10
2022-11-16T23:27:31.904Z,5.47
2022-11-16T23:30:00.946Z,2.80
2022-11-16T23:32:29.229Z,3.10
2022-11-16T23:34:57.134Z,4.00
2022-11-16T23:37:26.418Z,6.32
2022-11-16T23:39:54.247Z,5.75
2022-11-16T23:42:39.640Z,3.13
2022-11-16T23:45:08.109Z,4.28
2022-11-16T23:47:35.915Z,3.03
2022-11-16T23:50:03.807Z,3.80
2022-11-16T23:52:32.982Z,3.28
2022-11-16T23:55:00.825Z,3.90
2022-11-16T23:57:28.627Z,3.70
2022-11-16T23:59:56.488Z,3.42
